Archer, Idaho
Current Conditions -  °F | °C
As of 4:53 PM on Saturday 22 Nov 2014 (Local Time) from KRXE Reporting Station
Clear Clear  
Wind Chill: -2°   Ceiling: Unl
Heat Index:   Visibility: 10mi
Dew Point: -1°   Wind: 5mph
Humidity: 89%   Direction: 160°SSE
Pressure: 29.68"   Gusts: NA
Location:  43.7568°N, 111.624°W
Report Text: KRXE 222353Z AUTO 16004KT 10SM CLR 01/M01 A2968 RMK AO2 UPB16E21SNE16 SLP066 P0005 60024 T00061011 10039 20006 51017
Loading
Personal Weather Stations






























Interactive Weather Map New forecast layout! Learn more

10-Day Weather Forecast

Advertisements
Track Severe Weather on mobile